createdAt,value
2022-09-04T00:00:03.341Z,83.86
2022-09-04T00:02:55.511Z,83.91
2022-09-04T00:05:29.397Z,83.95
2022-09-04T00:08:16.177Z,84.34
2022-09-04T00:10:52.258Z,84.05
2022-09-04T00:13:24.074Z,84.06
2022-09-04T00:15:58.107Z,84.09
2022-09-04T00:18:35.021Z,83.48
2022-09-04T00:21:12.811Z,81.96
2022-09-04T00:23:45.607Z,82.29
2022-09-04T00:26:23.601Z,82.75
2022-09-04T00:28:56.922Z,82.50
2022-09-04T00:31:32.079Z,82.05
2022-09-04T00:34:13.946Z,82.28
2022-09-04T00:36:50.265Z,82.21
2022-09-04T00:39:23.827Z,81.39
2022-09-04T00:42:10.505Z,81.26
2022-09-04T00:45:01.921Z,80.87
2022-09-04T00:47:58.712Z,80.68
2022-09-04T00:51:01.718Z,80.78
2022-09-04T00:53:47.730Z,80.51
2022-09-04T00:56:41.978Z,80.96
2022-09-04T00:59:23.259Z,80.37
2022-09-04T01:01:56.036Z,80.63
2022-09-04T01:04:41.100Z,79.83
2022-09-04T01:07:32.014Z,79.69
2022-09-04T01:10:26.026Z,79.58
2022-09-04T01:13:01.047Z,79.67
2022-09-04T01:15:38.898Z,79.68
2022-09-04T01:18:12.628Z,79.77
2022-09-04T01:20:53.790Z,78.41
2022-09-04T01:23:43.718Z,78.58
2022-09-04T01:26:21.179Z,78.36
2022-09-04T01:29:02.608Z,78.68
2022-09-04T01:31:38.815Z,77.94
2022-09-04T01:34:23.953Z,78.27
2022-09-04T01:37:01.064Z,79.41
2022-09-04T01:39:32.984Z,79.48
2022-09-04T01:42:10.383Z,78.85
2022-09-04T01:44:38.179Z,78.60
2022-09-04T01:47:16.381Z,79.14
2022-09-04T01:49:50.647Z,78.81
2022-09-04T01:52:39.975Z,79.18
2022-09-04T01:55:19.902Z,79.98
2022-09-04T01:58:00.015Z,80.09
2022-09-04T02:00:33.962Z,80.04
2022-09-04T02:03:11.447Z,79.82
2022-09-04T02:06:00.449Z,79.23
2022-09-04T02:08:43.157Z,79.08
2022-09-04T02:11:17.121Z,79.62
2022-09-04T02:14:06.613Z,79.70
2022-09-04T02:16:46.533Z,78.89
2022-09-04T02:19:25.515Z,79.58
2022-09-04T02:22:03.166Z,79.41
2022-09-04T02:24:39.605Z,79.84
2022-09-04T02:27:11.849Z,79.53
2022-09-04T02:29:47.349Z,79.65
2022-09-04T02:32:20.183Z,79.72
2022-09-04T02:34:56.258Z,79.69
2022-09-04T02:37:30.062Z,79.93
2022-09-04T02:40:04.892Z,79.06
2022-09-04T02:42:44.431Z,79.84
2022-09-04T02:45:24.025Z,79.99
2022-09-04T02:48:00.489Z,79.94
2022-09-04T02:50:40.249Z,80.26
2022-09-04T02:53:20.450Z,80.28
2022-09-04T02:56:07.953Z,80.56
2022-09-04T02:58:49.856Z,80.55
2022-09-04T03:01:25.845Z,80.72
2022-09-04T03:04:01.359Z,80.58
2022-09-04T03:06:45.928Z,80.65
2022-09-04T03:09:18.840Z,80.61
2022-09-04T03:11:52.992Z,80.87
2022-09-04T03:14:27.807Z,80.37
2022-09-04T03:17:02.642Z,80.52
2022-09-04T03:19:36.916Z,80.53
2022-09-04T03:22:12.014Z,80.51
2022-09-04T03:24:59.942Z,80.57
2022-09-04T03:27:31.548Z,80.55
2022-09-04T03:30:04.482Z,81.17
2022-09-04T03:32:40.028Z,81.10
2022-09-04T03:35:16.026Z,80.78
2022-09-04T03:37:59.078Z,80.35
2022-09-04T03:40:39.224Z,80.13
2022-09-04T03:43:20.190Z,79.89
2022-09-04T03:45:57.456Z,79.55
2022-09-04T03:48:35.445Z,79.64
2022-09-04T03:51:16.289Z,79.99
2022-09-04T03:53:46.755Z,79.78
2022-09-04T03:56:33.070Z,79.90
2022-09-04T03:59:07.469Z,79.79
2022-09-04T04:01:46.714Z,79.78
2022-09-04T04:04:44.053Z,80.12
2022-09-04T04:07:24.580Z,80.26
2022-09-04T04:10:03.824Z,80.75
2022-09-04T04:12:52.320Z,80.80
2022-09-04T04:15:33.341Z,80.68
2022-09-04T04:18:18.692Z,81.50
2022-09-04T04:21:00.638Z,81.11
2022-09-04T04:24:01.954Z,81.04
2022-09-04T04:26:54.045Z,81.04
2022-09-04T04:29:43.194Z,81.23
2022-09-04T04:32:25.465Z,81.14
2022-09-04T04:35:16.581Z,81.19
2022-09-04T04:38:02.177Z,81.33
2022-09-04T04:40:52.587Z,81.65
2022-09-04T04:43:26.698Z,81.20
2022-09-04T04:45:59.964Z,81.06
2022-09-04T04:49:06.117Z,81.05
2022-09-04T04:51:50.211Z,81.18
2022-09-04T04:54:35.627Z,81.49
2022-09-04T04:57:13.059Z,81.48
2022-09-04T04:59:49.252Z,80.87
2022-09-04T05:02:27.589Z,80.72
2022-09-04T05:05:03.318Z,80.70
2022-09-04T05:07:39.226Z,80.49
2022-09-04T05:10:19.308Z,80.74
2022-09-04T05:13:00.224Z,80.93
2022-09-04T05:15:43.825Z,80.77
2022-09-04T05:18:30.406Z,81.37
2022-09-04T05:21:09.923Z,80.95
2022-09-04T05:23:43.192Z,80.86
2022-09-04T05:26:23.174Z,80.67
2022-09-04T05:28:59.444Z,80.76
2022-09-04T05:31:38.299Z,80.42
2022-09-04T05:34:13.914Z,80.70
2022-09-04T05:36:51.506Z,80.02
2022-09-04T05:39:29.585Z,80.00
2022-09-04T05:42:16.517Z,80.42
2022-09-04T05:44:58.320Z,80.03
2022-09-04T05:47:38.812Z,79.83
2022-09-04T05:50:22.359Z,79.83
2022-09-04T05:53:14.472Z,79.56
2022-09-04T05:56:02.549Z,78.79
2022-09-04T05:58:55.156Z,78.34
2022-09-04T06:01:40.510Z,77.84
2022-09-04T06:04:35.055Z,77.72
2022-09-04T06:07:13.015Z,77.51
2022-09-04T06:09:55.471Z,77.27
2022-09-04T06:12:45.585Z,77.12
2022-09-04T06:15:22.418Z,76.58
2022-09-04T06:18:20.098Z,76.54
2022-09-04T06:21:13.036Z,76.11
2022-09-04T06:24:06.921Z,76.08
2022-09-04T06:26:50.090Z,75.85
2022-09-04T06:29:37.358Z,76.33
2022-09-04T06:32:28.914Z,75.61
2022-09-04T06:35:47.043Z,75.63
2022-09-04T06:38:31.842Z,75.90
2022-09-04T06:41:14.488Z,76.12
2022-09-04T06:43:50.866Z,76.07
2022-09-04T06:46:28.322Z,76.67
2022-09-04T06:49:07.350Z,76.88
2022-09-04T06:51:57.295Z,76.90
2022-09-04T06:54:41.514Z,77.21
2022-09-04T06:57:30.075Z,76.76
2022-09-04T07:00:06.034Z,77.82
2022-09-04T07:02:52.657Z,77.68
2022-09-04T07:05:30.498Z,78.07
2022-09-04T07:08:09.188Z,78.46
2022-09-04T07:10:43.473Z,77.53
2022-09-04T07:13:47.982Z,77.90
2022-09-04T07:16:42.843Z,77.35
2022-09-04T07:19:25.919Z,77.86
2022-09-04T07:22:13.173Z,78.06
2022-09-04T07:24:56.985Z,77.60
2022-09-04T07:27:40.049Z,77.89
2022-09-04T07:30:10.264Z,79.13
2022-09-04T07:32:43.242Z,78.34
2022-09-04T07:35:17.553Z,81.23
2022-09-04T07:37:56.033Z,80.68
2022-09-04T07:40:30.790Z,79.76
2022-09-04T07:43:07.457Z,79.21
2022-09-04T07:45:38.243Z,79.05
2022-09-04T07:48:19.866Z,79.09
2022-09-04T07:51:04.570Z,79.12
2022-09-04T07:53:59.096Z,77.95
2022-09-04T07:56:36.184Z,78.15
2022-09-04T07:59:40.307Z,77.02
2022-09-04T08:02:37.827Z,76.21
2022-09-04T08:05:22.952Z,76.36
2022-09-04T08:08:23.432Z,75.86
2022-09-04T08:11:07.235Z,75.97
2022-09-04T08:14:13.080Z,74.75
2022-09-04T08:16:49.126Z,75.06
2022-09-04T08:19:41.561Z,74.62
2022-09-04T08:22:14.267Z,72.98
2022-09-04T08:27:50.444Z,73.75
2022-09-04T08:30:21.585Z,75.28
2022-09-04T08:33:24.884Z,74.16
2022-09-04T08:36:01.267Z,73.22
2022-09-04T08:38:55.575Z,72.51
2022-09-04T08:41:59.790Z,70.46
2022-09-04T08:45:11.537Z,71.73
2022-09-04T08:48:12.700Z,70.27
2022-09-04T08:51:03.996Z,69.46
2022-09-04T08:54:09.709Z,69.03
2022-09-04T08:56:47.288Z,69.65
2022-09-04T08:59:57.090Z,70.25
2022-09-04T09:03:00.483Z,69.29
2022-09-04T09:06:07.338Z,67.57
2022-09-04T09:09:10.814Z,67.26
2022-09-04T09:11:59.005Z,65.82
2022-09-04T09:15:06.971Z,65.63
2022-09-04T09:17:39.559Z,67.25
2022-09-04T09:20:25.900Z,70.10
2022-09-04T09:23:26.050Z,70.48
2022-09-04T09:26:06.210Z,69.40
2022-09-04T09:29:13.407Z,69.82
2022-09-04T09:32:22.737Z,70.75
2022-09-04T09:35:33.387Z,69.54
2022-09-04T09:38:34.733Z,70.37
2022-09-04T09:41:44.129Z,69.96
2022-09-04T09:44:43.347Z,70.02
2022-09-04T09:47:40.194Z,70.52
2022-09-04T09:50:33.611Z,70.42
2022-09-04T09:53:47.114Z,70.54
2022-09-04T09:57:03.059Z,71.40
2022-09-04T10:00:05.186Z,69.96
2022-09-04T10:03:13.548Z,71.30
2022-09-04T10:06:01.709Z,71.67
2022-09-04T10:08:49.823Z,70.60
2022-09-04T10:11:59.327Z,70.45
2022-09-04T10:15:11.328Z,70.71
2022-09-04T10:18:18.671Z,70.93
2022-09-04T10:21:10.409Z,70.43
2022-09-04T10:24:11.352Z,69.33
2022-09-04T10:27:04.279Z,69.78
2022-09-04T10:29:42.284Z,70.96
2022-09-04T10:32:55.053Z,69.12
2022-09-04T10:35:27.780Z,69.57
2022-09-04T10:38:22.882Z,69.90
2022-09-04T10:41:20.402Z,68.79
2022-09-04T10:44:25.398Z,68.71
2022-09-04T10:47:04.005Z,68.55
2022-09-04T10:49:47.196Z,67.74
2022-09-04T10:52:53.907Z,67.83
2022-09-04T10:55:36.533Z,67.27
2022-09-04T10:58:29.172Z,66.28
2022-09-04T11:01:22.345Z,64.92
2022-09-04T11:04:13.951Z,65.75
2022-09-04T11:07:12.300Z,65.65
2022-09-04T11:09:59.914Z,64.90
2022-09-04T11:12:45.108Z,64.95
2022-09-04T11:15:26.696Z,64.15
2022-09-04T11:18:22.261Z,62.17
2022-09-04T11:21:27.169Z,62.45
2022-09-04T11:24:26.578Z,61.70
2022-09-04T11:27:31.527Z,60.88
2022-09-04T11:30:05.683Z,60.53
2022-09-04T11:33:00.234Z,60.29
2022-09-04T11:36:21.517Z,59.42
2022-09-04T11:39:26.125Z,59.66
2022-09-04T11:42:20.298Z,58.74
2022-09-04T11:45:16.659Z,58.92
2022-09-04T11:48:03.613Z,59.12
2022-09-04T11:50:56.424Z,57.66
2022-09-04T11:53:46.178Z,55.54
2022-09-04T11:56:42.439Z,55.30
2022-09-04T11:59:43.960Z,55.70
2022-09-04T12:02:39.066Z,56.48
2022-09-04T12:05:20.150Z,56.57
2022-09-04T12:08:04.908Z,55.96
2022-09-04T12:10:53.706Z,55.73
2022-09-04T12:13:52.599Z,55.83
2022-09-04T12:16:42.330Z,55.75
2022-09-04T12:19:35.538Z,55.38
2022-09-04T12:22:38.626Z,52.71
2022-09-04T12:25:37.452Z,52.33
2022-09-04T12:28:38.063Z,51.73
2022-09-04T12:31:22.994Z,51.32
2022-09-04T12:34:36.846Z,51.98
2022-09-04T12:37:37.455Z,51.70
2022-09-04T12:40:28.324Z,51.72
2022-09-04T12:43:07.172Z,51.89
2022-09-04T12:45:44.365Z,52.12
2022-09-04T12:48:22.356Z,51.40
2022-09-04T12:50:58.607Z,49.88
2022-09-04T12:53:49.254Z,50.22
2022-09-04T12:56:30.184Z,50.21
2022-09-04T12:59:19.154Z,50.70
2022-09-04T13:02:01.822Z,49.69
2022-09-04T13:04:38.717Z,49.42
2022-09-04T13:07:26.246Z,49.09
2022-09-04T13:10:04.156Z,49.35
2022-09-04T13:12:37.952Z,48.05
2022-09-04T13:15:24.343Z,48.57
2022-09-04T13:18:00.065Z,48.46
2022-09-04T13:20:40.275Z,48.65
2022-09-04T13:23:26.926Z,47.01
2022-09-04T13:26:16.702Z,47.00
2022-09-04T13:28:56.798Z,47.76
2022-09-04T13:31:43.304Z,47.31
2022-09-04T13:34:17.125Z,46.23
2022-09-04T13:36:55.038Z,46.01
2022-09-04T13:39:54.434Z,45.46
2022-09-04T13:43:00.208Z,45.88
2022-09-04T13:45:34.893Z,45.26
2022-09-04T13:48:07.880Z,44.83
2022-09-04T13:50:38.598Z,45.69
2022-09-04T13:53:16.575Z,45.16
2022-09-04T13:55:50.291Z,44.59
2022-09-04T13:58:21.840Z,43.58
2022-09-04T14:00:53.530Z,44.13
2022-09-04T14:03:36.775Z,43.38
2022-09-04T14:06:08.554Z,44.29
2022-09-04T14:08:37.602Z,43.25
2022-09-04T14:11:39.373Z,39.68
2022-09-04T14:14:35.178Z,34.01
2022-09-04T14:17:03.126Z,30.68
2022-09-04T14:19:44.067Z,28.52
2022-09-04T14:22:33.527Z,30.62
2022-09-04T14:25:11.733Z,29.22
2022-09-04T14:28:12.563Z,27.09
2022-09-04T14:30:47.986Z,28.36
2022-09-04T14:33:34.629Z,25.10
2022-09-04T14:36:16.091Z,25.53
2022-09-04T14:38:57.199Z,24.46
2022-09-04T14:41:41.791Z,21.47
2022-09-04T14:44:27.129Z,23.01
2022-09-04T14:47:07.352Z,24.27
2022-09-04T14:49:47.396Z,24.78
2022-09-04T14:52:18.417Z,25.05
2022-09-04T14:54:52.380Z,29.08
2022-09-04T14:57:26.109Z,24.73
2022-09-04T15:00:04.813Z,26.22
2022-09-04T15:02:38.191Z,28.42
2022-09-04T15:05:16.019Z,22.79
2022-09-04T15:07:55.033Z,24.34
2022-09-04T15:10:28.509Z,24.38
2022-09-04T15:13:32.365Z,28.33
2022-09-04T15:16:19.409Z,27.62
2022-09-04T15:18:56.936Z,26.49
2022-09-04T15:21:32.928Z,24.53
2022-09-04T15:24:13.557Z,23.55
2022-09-04T15:26:47.005Z,21.97
2022-09-04T15:29:22.966Z,19.89
2022-09-04T15:32:00.749Z,20.75
2022-09-04T15:34:30.858Z,23.60
2022-09-04T15:37:11.710Z,27.02
2022-09-04T15:39:48.488Z,31.62
2022-09-04T15:42:36.192Z,33.43
2022-09-04T15:45:10.978Z,35.16
2022-09-04T15:47:56.935Z,36.16
2022-09-04T15:50:28.723Z,37.82
2022-09-04T15:53:10.053Z,38.72
2022-09-04T15:56:08.769Z,40.39
2022-09-04T15:58:47.451Z,39.54
2022-09-04T16:01:23.217Z,39.98
2022-09-04T16:04:12.724Z,39.15
2022-09-04T16:06:48.040Z,39.67
2022-09-04T16:09:24.360Z,39.31
2022-09-04T16:12:03.738Z,38.96
2022-09-04T16:14:36.878Z,39.53
2022-09-04T16:17:17.051Z,40.41
2022-09-04T16:19:55.443Z,39.95
2022-09-04T16:22:40.041Z,40.38
2022-09-04T16:25:11.878Z,40.15
2022-09-04T16:27:49.217Z,40.71
2022-09-04T16:30:33.896Z,41.07
2022-09-04T16:33:03.441Z,41.35
2022-09-04T16:35:38.226Z,40.83
2022-09-04T16:38:12.426Z,41.28
2022-09-04T16:40:48.781Z,41.35
2022-09-04T16:43:40.377Z,40.63
2022-09-04T16:46:16.478Z,40.76
2022-09-04T16:48:53.988Z,39.87
2022-09-04T16:51:40.363Z,40.47
2022-09-04T16:54:18.295Z,41.03
2022-09-04T16:56:53.322Z,42.11
2022-09-04T16:59:43.563Z,42.44
2022-09-04T17:02:29.507Z,42.73
2022-09-04T17:05:17.887Z,41.75
2022-09-04T17:07:52.484Z,41.98
2022-09-04T17:10:37.003Z,42.03
2022-09-04T17:13:13.121Z,42.79
2022-09-04T17:15:53.487Z,42.45
2022-09-04T17:18:24.488Z,42.35
2022-09-04T17:25:45.130Z,42.68
2022-09-04T17:29:09.209Z,43.73
2022-09-04T17:29:13.980Z,44.63
2022-09-04T17:29:50.772Z,45.37
2022-09-04T17:36:01.257Z,45.31
2022-09-04T17:40:46.473Z,45.39
2022-09-04T17:40:48.848Z,46.10
2022-09-04T17:41:31.075Z,46.92
2022-09-04T17:44:29.240Z,46.78
2022-09-04T17:47:11.730Z,46.27
2022-09-04T17:49:45.863Z,46.05
2022-09-04T17:52:23.818Z,45.96
2022-09-04T17:54:52.441Z,46.25
2022-09-04T17:57:28.874Z,46.33
2022-09-04T18:00:04.858Z,46.68
2022-09-04T18:02:42.158Z,47.19
2022-09-04T18:05:19.238Z,46.88
2022-09-04T18:08:09.713Z,47.49
2022-09-04T18:10:51.822Z,48.21
2022-09-04T18:13:37.862Z,49.00
2022-09-04T18:16:17.578Z,49.78
2022-09-04T18:18:49.302Z,50.86
2022-09-04T18:21:23.470Z,51.85
2022-09-04T18:23:58.618Z,51.95
2022-09-04T18:26:39.902Z,52.44
2022-09-04T18:30:42.851Z,52.74
2022-09-04T18:37:19.634Z,54.53
2022-09-04T18:37:25.853Z,54.08
2022-09-04T18:38:37.973Z,55.31
2022-09-04T18:44:27.166Z,56.08
2022-09-04T18:50:20.770Z,56.25
2022-09-04T18:50:32.089Z,57.98
2022-09-04T18:50:35.292Z,57.24
2022-09-04T18:53:06.332Z,58.54
2022-09-04T18:55:43.601Z,58.98
2022-09-04T18:58:41.729Z,59.35
2022-09-04T19:01:20.363Z,59.51
2022-09-04T19:03:58.759Z,59.99
2022-09-04T19:06:35.058Z,60.21
2022-09-04T19:09:12.907Z,60.60
2022-09-04T19:11:47.389Z,60.99
2022-09-04T19:14:18.995Z,61.07
2022-09-04T19:16:53.078Z,60.93
2022-09-04T19:19:26.051Z,61.31
2022-09-04T19:22:02.889Z,61.25
2022-09-04T19:24:35.893Z,61.40
2022-09-04T19:27:27.561Z,61.65
2022-09-04T19:30:18.750Z,62.53
2022-09-04T19:33:13.618Z,62.81
2022-09-04T19:35:48.451Z,63.19
2022-09-04T19:45:45.705Z,63.78
2022-09-04T19:46:08.502Z,63.97
2022-09-04T19:46:13.996Z,64.37
2022-09-04T19:47:27.362Z,64.55
2022-09-04T19:53:21.234Z,64.63
2022-09-04T19:53:33.327Z,64.63
2022-09-04T19:55:57.410Z,64.42
2022-09-04T19:58:34.730Z,64.63
2022-09-04T20:01:05.245Z,64.64
2022-09-04T20:03:38.939Z,64.73
2022-09-04T20:06:23.308Z,65.15
2022-09-04T20:09:00.030Z,65.33
2022-09-04T20:11:36.046Z,65.49
2022-09-04T20:14:15.448Z,65.83
2022-09-04T20:16:56.507Z,65.92
2022-09-04T20:19:28.856Z,66.05
2022-09-04T20:22:03.598Z,66.48
2022-09-04T20:24:39.728Z,66.32
2022-09-04T20:27:16.015Z,66.78
2022-09-04T20:29:54.852Z,66.66
2022-09-04T20:32:28.975Z,66.81
2022-09-04T20:35:13.192Z,67.08
2022-09-04T20:37:53.466Z,67.00
2022-09-04T20:40:32.944Z,67.18
2022-09-04T20:43:18.385Z,67.33
2022-09-04T20:51:13.772Z,67.68
2022-09-04T20:52:49.484Z,67.71
2022-09-04T20:52:58.419Z,67.81
2022-09-04T20:55:05.337Z,68.24
2022-09-04T21:02:05.155Z,68.17
2022-09-04T21:03:17.782Z,68.56
2022-09-04T21:03:53.530Z,68.47
2022-09-04T21:06:32.857Z,68.81
2022-09-04T21:09:12.105Z,68.94
2022-09-04T21:11:46.022Z,68.97
2022-09-04T21:14:20.933Z,69.10
2022-09-04T21:17:33.858Z,68.95
2022-09-04T21:20:35.398Z,69.34
2022-09-04T21:23:39.560Z,68.91
2022-09-04T21:26:19.872Z,69.41
2022-09-04T21:29:11.257Z,69.78
2022-09-04T21:32:08.754Z,70.12
2022-09-04T21:34:55.063Z,70.34
2022-09-04T21:37:29.741Z,70.14
2022-09-04T21:40:25.781Z,69.79
2022-09-04T21:43:35.733Z,69.80
2022-09-04T21:46:28.811Z,69.80
2022-09-04T21:49:26.446Z,69.75
2022-09-04T21:52:21.255Z,69.86
2022-09-04T21:57:45.834Z,70.55
2022-09-04T22:02:29.393Z,70.64
2022-09-04T22:02:38.658Z,71.45
2022-09-04T22:04:30.430Z,70.98
2022-09-04T22:08:36.364Z,71.20
2022-09-04T22:13:33.047Z,71.11
2022-09-04T22:13:42.610Z,71.51
2022-09-04T22:16:05.881Z,71.51
2022-09-04T22:18:48.748Z,71.93
2022-09-04T22:21:26.896Z,72.58
2022-09-04T22:24:14.069Z,72.67
2022-09-04T22:27:16.953Z,72.49
2022-09-04T22:29:54.719Z,72.82
2022-09-04T22:32:47.001Z,72.84
2022-09-04T22:35:48.462Z,72.74
2022-09-04T22:38:37.200Z,72.86
2022-09-04T22:41:29.968Z,73.00
2022-09-04T22:44:06.266Z,73.56
2022-09-04T22:46:56.794Z,73.65
2022-09-04T22:49:49.196Z,73.34
2022-09-04T22:52:44.078Z,73.38
2022-09-04T22:56:03.836Z,73.22
2022-09-04T22:58:35.579Z,73.54
2022-09-04T23:01:26.245Z,74.03
2022-09-04T23:04:16.118Z,74.40
2022-09-04T23:11:32.091Z,74.58
2022-09-04T23:14:00.282Z,74.60
2022-09-04T23:14:06.682Z,74.52
2022-09-04T23:17:13.386Z,74.35
2022-09-04T23:24:50.417Z,74.54
2022-09-04T23:26:57.258Z,74.59
2022-09-04T23:26:59.367Z,74.83
2022-09-04T23:29:47.945Z,75.14
2022-09-04T23:32:39.131Z,75.20
2022-09-04T23:35:16.729Z,75.23
2022-09-04T23:38:04.934Z,75.34
2022-09-04T23:40:41.974Z,75.64
2022-09-04T23:43:53.062Z,75.75
2022-09-04T23:46:45.988Z,75.18
2022-09-04T23:49:39.727Z,75.25
2022-09-04T23:52:22.029Z,75.62
2022-09-04T23:55:09.965Z,76.10
2022-09-04T23:57:45.790Z,76.03
